Pine Level, Alabama
Current Conditions -  °F | °C
As of 1:53 AM on Wednesday 26 Nov 2014 (Local Time) from KTOI Reporting Station
Clear Clear  
Wind Chill: 44°   Ceiling: Unl
Heat Index: 48°   Visibility: 10mi
Dew Point: 32°   Wind: 9mph
Humidity: 54%   Direction: 310°NW
Pressure: 30.06"   Gusts: NA
Location:  32.07°N, 86.06°W
Report Text: KTOI 260753Z AUTO 31008KT 10SM CLR 09/00 A3006 RMK AO2 SLP180 T00890000
Loading
Personal Weather Stations






























Interactive Weather Map New forecast layout! Learn more

10-Day Weather Forecast

Advertisements
Track Severe Weather on mobile